A- A+ FrançaisEnglishEspañol中国

le plus proche LFBT Tarbes-Lourdes-PyrénéesLFBE Bergerac-RoumaniereLFRV Vannes-MeuconLFCS Bordeaux-Leognan-Saucats

manche à air

La météo aéronautique pour les pilotes, la préparation du vol avec les METAR (METeorological Aerodrome Report, message d'observation des conditions météorologiques pour l'aviation) et Les TAF (Terminal Aerodrome Forecast : message de prévision à court terme des conditions météorologiques pour l'aviation). Et les autres ressources comme les VAC (Visual Approch Chart) et les NOTAM (Notice To Airman) pour préprer les vols.

Aéroport Timimoun (Algérie) / OACI DAUT/ IATA TMX

L'altitude de l'aéroport Timimoun est de 313 m=1027 ft. Il est situé à proximité de Timimoun (Algérie). La météo générale à 5 jours est disponible pour Adrar situé à 161.4 km.

METAR de l'aéroport Timimoun - DAUT

DAUT 022300Z 06009KT CAVOK 07/M03 Q1032

Décodage du METAR de l'aéroport Timimoun (DZ)

METAR émis par DAUT le vendredi 3 janvier 2020 à 23:00 heure TU. Attention ce METAR est obsolète car il a été émis il y a 10 heure et 55 minutes.

La visibilité est de supérieure à 10 km=supérieure à 6.2 sm.

La température est de 7°C=45 °F et le point rosée est de -3°C=27 °F . Ce qui correspond à 49% d'humidité relative.

Le QNH est de 1032 hPa=30.47 inHg

Vent de 9 kt=17 km/h, orienté à 60°.

Pas de nuages.

TAF de l'aéroport Timimoun - DAUT

DAUT 022300Z 0300/0309 05008KT CAVOK

DAUT 022300Z 0300/0309 05008KT visibilité supérieure à 10km, aucun nuage à une hauteur inférieure à 5000 ft ou sous l'altitude minimale de secteur et aucun cumulonimbus ou cumulus bourgeonnant, quelle que soit leur altitude

Aéroport à proximité de Timimoun

Météo générale à 5 jours à Adrar (161.4 km)DAUA Aéroport Adrar Touat (162 km)DAAF Aéroport Aoulef (255 km)DAAN Aéroport Reggen (281 km)DAUE Aéroport El Golea (290 km)DAUI Aéroport In Salah (311 km)DAOC Aéroport Bechar Oukda (357 km)

Vue aérienne de l'aéroport Timimoun

NOTAM de l'aéroport Timimoun

Les NOTAM sont fournis sans aucune garantie de leur actualité. Le pilote est le seul responsable de la vérification de sa validité avant de l'utiliser opérationnellement pour préparer un vol ou l'utiliser lors de sa navigation.

Pas de NOTAM

Sources des données